Flight Track Log - Related Links

Times and Time Zones

All times are in EST time to prevent confusion due to time zone crossing. See the WAV760 flight status page for this flight to view local times or setup timezone preferences in your user account.

Time Position Orientation Groundspeed Altitude Reporting Facility
EST Latitude Longitude Course Direction KTS MPH feet Rate Location/Type
Wed 09:08:31 PM 64.7000 -148.1167 281° West 110 127 3,700  Level Anchorage Center
Wed 09:09:31 PM 64.7167 -148.1667 308° West 100 115 4,400 645 Climbing Anchorage Center
Wed 09:10:00 PM 64.8629 -148.4314 278° West  Level FlightAware Approximate
Wed 09:10:32 PM 64.7167 -148.2333 270° West 100 115 5,000  Level Anchorage Center
Wed 09:11:00 PM 64.8734 -148.5270 301° West  Level FlightAware Approximate
Wed 09:11:32 PM 64.7333 -148.3000 300° West 90 104 5,700  Level Anchorage Center
Wed 09:12:00 PM 64.8878 -148.6202 281° West  Level FlightAware Approximate
Wed 09:12:32 PM 64.7333 -148.3667 270° West 100 115 6,200  Level Anchorage Center
Wed 09:13:00 PM 64.8960 -148.7189 281° West  Level FlightAware Approximate
Wed 09:13:33 PM 64.7500 -148.4333 300° West 110 127 6,800  Level Anchorage Center
Wed 09:14:33 PM 64.7500 -148.5000 270° West 110 127 7,400 600 Climbing Anchorage Center
Wed 09:15:33 PM 64.7667 -148.5667 300° West 110 127 8,000 298 Climbing Anchorage Center
Wed 09:16:34 PM 64.7667 -148.6500 270° West 120 138 8,000  Level Anchorage Center
Wed 09:17:34 PM 64.7667 -148.7167 270° West 130 150 8,000  Level Anchorage Center
Wed 09:18:34 PM 64.7833 -148.8000 295° West 130 150 8,000  Level Anchorage Center
Wed 09:19:35 PM 64.8000 -148.8833 295° West 140 161 8,000  Level Anchorage Center
Wed 09:20:35 PM 64.8000 -148.9667 270° West 130 150 8,000  Level Anchorage Center
Wed 09:21:35 PM 64.8167 -149.0500 295° West 130 150 8,000  Level Anchorage Center
Wed 09:22:36 PM 64.8167 -149.1500 270° West 130 150 8,000  Level Anchorage Center
Wed 09:23:36 PM 64.8333 -149.2333 295° West 130 150 8,000  Level Anchorage Center
Wed 09:24:36 PM 64.8500 -149.3167 295° West 140 161 8,000  Level Anchorage Center
Wed 09:25:37 PM 64.8500 -149.3833 270° West 120 138 8,000  Level Anchorage Center
Wed 09:26:37 PM 64.8667 -149.4833 291° West 140 161 8,000  Level Anchorage Center
Wed 09:27:37 PM 64.8833 -149.5667 295° West 140 161 8,000  Level Anchorage Center
Wed 09:28:38 PM 64.8833 -149.6500 270° West 150 173 8,000  Level Anchorage Center
Wed 09:29:38 PM 64.9000 -149.7667 289° West 160 184 8,000  Level Anchorage Center
Wed 09:30:38 PM 64.9167 -149.8500 295° West 140 161 8,000  Level Anchorage Center
Wed 09:31:38 PM 64.9333 -149.9500 292° West 160 184 8,000  Level Anchorage Center
Wed 09:32:39 PM 64.9333 -150.0333 270° West 150 173 8,000  Level Anchorage Center
Wed 09:33:39 PM 64.9500 -150.1333 292° West 160 184 8,000  Level Anchorage Center
Wed 09:34:39 PM 64.9667 -150.2167 295° West 160 184 8,000  Level Anchorage Center
Wed 09:35:40 PM 64.9667 -150.3000 270° West 120 138 8,000  Level Anchorage Center
Wed 09:36:40 PM 64.9833 -150.4167 289° West 150 173 8,000  Level Anchorage Center
Wed 09:37:40 PM 64.9833 -150.5000 270° West 140 161 8,000  Level Anchorage Center
Wed 09:38:41 PM 65.0000 -150.6000 292° West 180 207 8,000  Level Anchorage Center
Wed 09:39:41 PM 65.0000 -150.7000 270° West 140 161 8,000  Level Anchorage Center
Wed 09:41:42 PM 65.0167 -150.8833 282° West 160 184 8,000  Level Anchorage Center
Wed 09:42:42 PM 65.0167 -151.0000 270° West 160 184 8,000  Level Anchorage Center
Wed 09:43:43 PM 65.0167 -151.1000 270° West 150 173 8,000  Level Anchorage Center
Wed 09:44:43 PM 65.0167 -151.2000 270° West 150 173 8,000  Level Anchorage Center
Wed 09:45:43 PM 65.0333 -151.3000 292° West 160 184 8,000  Level Anchorage Center
Wed 09:46:44 PM 65.0333 -151.4000 270° West 140 161 8,000  Level Anchorage Center
Wed 09:47:44 PM 65.0333 -151.5000 270° West 140 161 8,000 -200 Level Anchorage Center
Wed 09:48:44 PM 65.0333 -151.6167 270° West 170 196 7,600 -446 Descending Anchorage Center
Wed 09:49:45 PM 65.0500 -151.6833 301° West 150 173 7,100 -496 Descending Anchorage Center
Wed 09:50:45 PM 65.0500 -151.8167 270° West 160 184 6,600 -400 Descending Anchorage Center
Wed 09:51:45 PM 65.0500 -151.9333 270° West 160 184 6,300 -397 Descending Anchorage Center
Wed 09:52:46 PM 65.0500 -152.0333 270° West 160 184 5,800 -446 Descending Anchorage Center
Wed 09:53:46 PM 65.0667 -152.1333 292° West 160 184 5,400 -400 Descending Anchorage Center
Wed 09:54:46 PM 65.0667 -152.2333 270° West 150 173 5,000 -545 Descending Anchorage Center
Wed 09:55:47 PM 65.0667 -152.3500 270° West 160 184 4,300 -595 Descending Anchorage Center
Wed 09:56:47 PM 65.0667 -152.4667 270° West 170 196 3,800 -397 Descending Anchorage Center
Wed 09:57:48 PM 65.0833 -152.5500 295° West 150 173 3,500 -198 Descending Anchorage Center
Wed 09:58:48 PM 65.1333 -152.5667 352° North 150 173 3,400 -50 Descending Anchorage Center
Wed 09:59:48 PM 65.1667 -152.5000 40° Northeast 160 184 3,400 -99 Level Anchorage Center
Wed 10:00:49 PM 65.1667 -152.4167 90° East 160 184 3,200 -197 Descending Anchorage Center

Login

Don't have an account? Register now (free) for customized features, flight alerts, and more!